Airfield :







YOU CAN JOIN US ON...

 
LOGIN :

Register | Disclaimer

   EN    FR    IT 

 









Legend :    VFR   Marginal VFR   IFR   Intensive IFR   Very Intensive IFR
Visi :
Ceiling :
>= 8 km
>= 3000ft
5 to 8 km
1000 to 3000 ft
1500m to 5 km
500 to 1000 ft
800 to 1500m
200 to 500 ft
< 800m
< 200 ft
Symbols :   Thunderstorms  Fog  Heavy snow  Heavy precipitations  Wind > 20 kt







- Airport Elevation : 550 ft
- IATA code : YOY


CYOY - C J.H.L.(Joe) Lecomte) Heliport

CURRENT METAR :
  • 231500Z AUTO 25007KT 200V270 9SM 08/06 A3020 RMK SLP235

EXPIRED METARs :
  • 231400Z AUTO 25005KT 9SM 08/06 A3019 RMK SLP231
  • 231300Z AUTO 27003KT 230V320 8SM 07/06 A3018 RMK SLP227

Expired Forecast.
CZUL FIR / North America



MET'MAP, your aeronautical weather chart ! - Copyright ORBIFLY December 2007 - Disclaimer

ORBIFLY MET'MAP TEAM :

Programming & Development : Alexandra Zaïnal
Concept & Development : Baudouin d'Aumeries
Co-Development & Prog : Marc-Olivier Méhu
Technical & hardware support : Manuel Goepfert

Contact : metmap@orbifly.com




SOURCES & CREDITS :

   NOAA